Time;durP1;ratioP1;P1;durP2;ratioP2;P2;SDS_P1;SDS_P2;PMS_P1;PMS_P2;Temp;Humidity;BMP_temperature;BMP_pressure;BME280_temperature;BME280_humidity;BME280_pressure;Samples;Min_cycle;Max_cycle;Signal;HPM_P1;HPM_P2
2021/09/29 00:00:01;;;;;;;7.90;2.67;;;;;;;;;;5043209;28;20192;-81
2021/09/29 00:02:27;;;;;;;5.03;2.60;;;;;;;;;;5044516;28;20196;-81
2021/09/29 00:04:53;;;;;;;11.10;3.70;;;;;;;;;;5044052;28;20444;-81
2021/09/29 00:07:19;;;;;;;9.55;3.00;;;;;;;;;;5042537;28;20428;-81
2021/09/29 00:09:45;;;;;;;8.93;3.30;;;;;;;;;;5046718;28;20188;-80
2021/09/29 00:12:11;;;;;;;9.57;3.55;;;;;;;;;;5035265;28;20439;-80
2021/09/29 00:14:37;;;;;;;5.60;3.55;;;;;;;;;;5046219;28;20218;-82
2021/09/29 00:17:04;;;;;;;5.28;2.70;;;;;;;;;;5040036;28;20427;-81
2021/09/29 00:19:30;;;;;;;8.85;3.40;;;;;;;;;;5045770;28;20265;-81
2021/09/29 00:21:56;;;;;;;6.50;3.45;;;;;;;;;;5051841;28;20189;-81
2021/09/29 00:24:22;;;;;;;2.47;1.73;;;;;;;;;;5043275;28;20576;-82
2021/09/29 00:26:48;;;;;;;5.45;2.00;;;;;;;;;;5039642;28;20483;-81
2021/09/29 00:29:14;;;;;;;3.30;1.53;;;;;;;;;;5043313;28;20327;-81
2021/09/29 00:31:40;;;;;;;4.20;1.60;;;;;;;;;;5041160;28;20487;-82
2021/09/29 00:34:11;;;;;;;3.05;1.20;;;;;;;;;;5045131;28;20423;-80
2021/09/29 00:36:39;;;;;;;4.80;1.10;;;;;;;;;;5047410;28;20207;-83
2021/09/29 00:39:05;;;;;;;2.90;1.15;;;;;;;;;;5043970;28;20227;-82
2021/09/29 00:41:32;;;;;;;4.38;1.60;;;;;;;;;;5043490;28;20182;-82
2021/09/29 00:43:58;;;;;;;3.65;1.23;;;;;;;;;;5042072;28;20185;-82
2021/09/29 00:46:24;;;;;;;5.28;1.30;;;;;;;;;;5042029;28;20323;-83
2021/09/29 00:48:50;;;;;;;9.90;2.45;;;;;;;;;;5037552;28;20205;-81
2021/09/29 00:51:16;;;;;;;5.00;1.58;;;;;;;;;;5049744;28;20192;-82
2021/09/29 00:53:43;;;;;;;3.00;1.45;;;;;;;;;;5044475;28;20627;-81
2021/09/29 00:56:09;;;;;;;4.10;1.20;;;;;;;;;;5040899;28;20234;-82
2021/09/29 00:58:35;;;;;;;3.83;1.10;;;;;;;;;;5039758;28;20189;-83
2021/09/29 01:01:01;;;;;;;5.30;1.50;;;;;;;;;;5046915;28;20185;-82
2021/09/29 01:03:27;;;;;;;3.35;1.50;;;;;;;;;;5043614;28;20435;-82
2021/09/29 01:05:58;;;;;;;4.53;2.00;;;;;;;;;;5046719;28;20189;-83
2021/09/29 01:08:31;;;;;;;4.68;1.60;;;;;;;;;;5045949;28;20222;-81
2021/09/29 01:11:24;;;;;;;4.65;1.80;;;;;;;;;;5047517;28;20279;-81
2021/09/29 01:13:50;;;;;;;2.53;2.33;;;;;;;;;;5043716;28;20252;-81
2021/09/29 01:16:16;;;;;;;5.43;2.35;;;;;;;;;;5046680;28;20224;-82
2021/09/29 01:18:43;;;;;;;8.95;2.10;;;;;;;;;;5048573;28;20199;-81
2021/09/29 01:21:11;;;;;;;3.75;1.85;;;;;;;;;;5047272;28;20178;-81
2021/09/29 01:23:56;;;;;;;5.60;2.00;;;;;;;;;;5047817;28;20260;-81
2021/09/29 01:26:23;;;;;;;4.28;2.25;;;;;;;;;;5054272;28;20196;-81
2021/09/29 01:28:51;;;;;;;6.53;2.17;;;;;;;;;;5044630;28;20404;-81
2021/09/29 01:31:18;;;;;;;5.25;1.92;;;;;;;;;;5045475;28;20191;-80
2021/09/29 01:33:44;;;;;;;4.47;2.08;;;;;;;;;;5048202;28;20187;-80
2021/09/29 01:36:10;;;;;;;6.47;2.20;;;;;;;;;;5046037;28;20184;-79
2021/09/29 01:38:40;;;;;;;6.53;2.13;;;;;;;;;;5045697;28;20192;-82
2021/09/29 01:41:06;;;;;;;10.13;2.25;;;;;;;;;;5047345;28;20255;-80
2021/09/29 01:43:33;;;;;;;4.75;2.47;;;;;;;;;;5043219;28;20187;-81
2021/09/29 01:45:59;;;;;;;4.68;1.45;;;;;;;;;;5050668;28;20184;-81
2021/09/29 01:48:25;;;;;;;3.90;1.75;;;;;;;;;;5048034;28;20204;-80
2021/09/29 01:50:52;;;;;;;6.57;1.50;;;;;;;;;;5047421;28;20215;-82
2021/09/29 01:53:19;;;;;;;5.47;1.42;;;;;;;;;;5046048;28;20433;-81
2021/09/29 01:55:45;;;;;;;9.02;1.20;;;;;;;;;;5044086;28;20186;-80
2021/09/29 01:58:13;;;;;;;5.47;1.48;;;;;;;;;;5047254;28;20310;-81
2021/09/29 02:00:40;;;;;;;5.40;1.40;;;;;;;;;;5048214;28;20176;-82
2021/09/29 02:03:06;;;;;;;3.70;1.00;;;;;;;;;;5045605;28;20228;-82
2021/09/29 02:05:34;;;;;;;4.75;1.23;;;;;;;;;;5047420;28;20240;-80
2021/09/29 02:08:01;;;;;;;5.15;1.42;;;;;;;;;;5044278;28;20207;-80
2021/09/29 02:10:27;;;;;;;4.40;1.50;;;;;;;;;;5044093;28;20221;-81
2021/09/29 02:12:53;;;;;;;3.45;1.42;;;;;;;;;;5049941;28;20177;-82
2021/09/29 02:15:21;;;;;;;2.38;1.20;;;;;;;;;;5046454;28;20171;-81
2021/09/29 02:17:47;;;;;;;4.75;1.40;;;;;;;;;;5045893;28;20189;-80
2021/09/29 02:20:13;;;;;;;2.83;1.20;;;;;;;;;;5046610;28;20576;-81
2021/09/29 02:22:39;;;;;;;2.67;1.33;;;;;;;;;;5043625;28;20447;-80
2021/09/29 02:25:06;;;;;;;5.60;1.17;;;;;;;;;;5048662;28;20260;-82
2021/09/29 02:27:32;;;;;;;4.75;1.33;;;;;;;;;;5047205;28;20216;-83
2021/09/29 02:29:58;;;;;;;3.67;1.17;;;;;;;;;;5045291;28;20195;-81
2021/09/29 02:32:24;;;;;;;2.25;1.00;;;;;;;;;;5044830;28;20184;-82
2021/09/29 02:34:50;;;;;;;3.13;1.40;;;;;;;;;;5043202;28;20186;-80
2021/09/29 02:37:16;;;;;;;5.13;1.30;;;;;;;;;;5045795;28;20430;-81
2021/09/29 02:39:42;;;;;;;3.13;1.25;;;;;;;;;;5048894;28;20426;-82
2021/09/29 02:42:08;;;;;;;2.57;1.20;;;;;;;;;;5046057;28;20222;-82
2021/09/29 02:44:35;;;;;;;3.03;1.33;;;;;;;;;;5047063;28;20448;-82
2021/09/29 02:47:01;;;;;;;5.07;1.73;;;;;;;;;;5045515;28;20199;-81
2021/09/29 02:49:27;;;;;;;2.08;1.20;;;;;;;;;;5043330;28;20214;-80
2021/09/29 02:51:53;;;;;;;5.65;1.23;;;;;;;;;;5049224;28;20185;-80
2021/09/29 02:54:19;;;;;;;1.92;1.40;;;;;;;;;;5046062;28;20193;-80
2021/09/29 02:56:45;;;;;;;4.30;1.90;;;;;;;;;;5047450;28;20182;-81
2021/09/29 02:59:12;;;;;;;3.53;1.85;;;;;;;;;;5045510;28;20191;-81
2021/09/29 03:01:38;;;;;;;3.30;1.55;;;;;;;;;;5042847;28;20200;-81
2021/09/29 03:04:04;;;;;;;3.95;1.30;;;;;;;;;;5048449;28;20552;-80
2021/09/29 03:06:31;;;;;;;2.03;1.10;;;;;;;;;;5046221;28;20233;-80
2021/09/29 03:08:57;;;;;;;3.88;1.55;;;;;;;;;;5046698;28;20282;-80
2021/09/29 03:11:23;;;;;;;4.43;1.85;;;;;;;;;;5044481;28;20689;-80
2021/09/29 03:13:49;;;;;;;5.25;2.08;;;;;;;;;;5041092;28;20206;-80
2021/09/29 03:16:15;;;;;;;2.70;1.40;;;;;;;;;;5045717;28;20196;-80
2021/09/29 03:18:41;;;;;;;5.25;1.60;;;;;;;;;;5046914;28;20268;-80
2021/09/29 03:21:08;;;;;;;5.53;2.90;;;;;;;;;;5044588;28;20192;-81
2021/09/29 03:23:34;;;;;;;5.30;1.17;;;;;;;;;;5045691;28;20249;-83
2021/09/29 03:26:00;;;;;;;1.85;1.10;;;;;;;;;;5043543;28;20189;-81
2021/09/29 03:28:26;;;;;;;2.75;1.55;;;;;;;;;;5039924;28;20230;-80
2021/09/29 03:30:52;;;;;;;2.35;1.17;;;;;;;;;;5047354;28;20947;-80
2021/09/29 03:33:18;;;;;;;2.20;0.97;;;;;;;;;;5046208;28;20214;-81
2021/09/29 03:35:44;;;;;;;2.27;1.30;;;;;;;;;;5046938;28;20443;-81
2021/09/29 03:38:11;;;;;;;3.50;1.20;;;;;;;;;;5041054;28;20486;-80
2021/09/29 03:40:37;;;;;;;1.13;0.80;;;;;;;;;;5045680;28;20201;-81
2021/09/29 03:43:03;;;;;;;2.70;1.88;;;;;;;;;;5044365;28;20173;-81
2021/09/29 03:45:29;;;;;;;4.00;1.30;;;;;;;;;;5056804;28;20689;-79
2021/09/29 03:47:55;;;;;;;2.90;1.02;;;;;;;;;;5045139;28;20204;-82
2021/09/29 03:50:22;;;;;;;4.13;1.08;;;;;;;;;;5044808;28;20210;-82
2021/09/29 03:52:48;;;;;;;6.25;1.05;;;;;;;;;;5040971;28;20192;-82
2021/09/29 03:55:14;;;;;;;4.35;1.23;;;;;;;;;;5045733;28;20179;-81
2021/09/29 03:57:40;;;;;;;5.63;1.42;;;;;;;;;;5045935;28;20180;-81
2021/09/29 04:00:08;;;;;;;3.80;1.20;;;;;;;;;;5042481;28;20200;-82
2021/09/29 04:02:34;;;;;;;2.40;0.93;;;;;;;;;;5043890;28;20192;-80
2021/09/29 04:05:00;;;;;;;1.00;0.80;;;;;;;;;;5044117;28;20183;-82
2021/09/29 04:07:26;;;;;;;6.32;1.35;;;;;;;;;;5040230;28;20194;-81
2021/09/29 04:09:52;;;;;;;2.70;1.10;;;;;;;;;;5047603;28;20643;-81
2021/09/29 04:12:20;;;;;;;1.70;1.00;;;;;;;;;;5042614;28;21036;-81
2021/09/29 04:14:46;;;;;;;5.78;1.10;;;;;;;;;;5043355;28;20192;-81
2021/09/29 04:17:12;;;;;;;2.87;0.97;;;;;;;;;;5043295;28;20187;-83
2021/09/29 04:19:38;;;;;;;2.23;1.30;;;;;;;;;;5040837;28;20450;-82
2021/09/29 04:22:10;;;;;;;2.65;1.25;;;;;;;;;;5045598;28;20482;-80
2021/09/29 04:24:36;;;;;;;2.70;1.15;;;;;;;;;;5062677;28;20192;-79
2021/09/29 04:27:02;;;;;;;2.15;1.00;;;;;;;;;;5043525;28;20260;-82
2021/09/29 04:29:28;;;;;;;5.38;1.80;;;;;;;;;;5045450;28;20212;-79
2021/09/29 04:31:54;;;;;;;4.10;1.10;;;;;;;;;;5041582;28;20204;-80
2021/09/29 04:34:20;;;;;;;1.38;0.85;;;;;;;;;;5042331;28;20431;-79
2021/09/29 04:36:47;;;;;;;5.13;1.40;;;;;;;;;;5046416;28;20182;-77
2021/09/29 04:39:13;;;;;;;2.60;1.05;;;;;;;;;;5043732;28;20463;-79
2021/09/29 04:41:39;;;;;;;2.33;0.90;;;;;;;;;;5044024;28;20671;-82
2021/09/29 04:44:05;;;;;;;3.28;0.88;;;;;;;;;;5042792;28;20256;-80
2021/09/29 04:46:31;;;;;;;3.00;0.90;;;;;;;;;;5050270;28;20683;-78
2021/09/29 04:48:57;;;;;;;5.50;1.13;;;;;;;;;;5046188;28;20213;-82
2021/09/29 04:51:23;;;;;;;1.60;0.70;;;;;;;;;;5043955;28;20473;-81
2021/09/29 04:53:49;;;;;;;1.08;0.75;;;;;;;;;;5043804;28;20193;-82
2021/09/29 04:56:15;;;;;;;1.98;0.75;;;;;;;;;;5042832;28;20514;-80
2021/09/29 04:58:43;;;;;;;3.05;0.63;;;;;;;;;;5040929;28;20217;-81
2021/09/29 05:01:09;;;;;;;1.98;0.70;;;;;;;;;;5042828;28;20186;-82
2021/09/29 05:03:36;;;;;;;3.38;0.70;;;;;;;;;;5046937;28;20187;-80
2021/09/29 05:06:02;;;;;;;0.77;0.70;;;;;;;;;;5046878;28;20465;-80
2021/09/29 05:08:29;;;;;;;1.33;0.75;;;;;;;;;;5044572;28;20194;-80
2021/09/29 05:11:00;;;;;;;2.65;1.13;;;;;;;;;;5042062;28;20232;-80
2021/09/29 05:13:29;;;;;;;1.10;0.98;;;;;;;;;;5040426;28;20186;-82
2021/09/29 05:15:55;;;;;;;2.35;0.80;;;;;;;;;;5047219;28;20168;-79
2021/09/29 05:18:21;;;;;;;1.48;0.70;;;;;;;;;;5045457;28;20232;-80
2021/09/29 05:20:47;;;;;;;1.88;0.88;;;;;;;;;;5043694;28;20256;-80
2021/09/29 05:23:14;;;;;;;1.10;0.70;;;;;;;;;;5042929;28;20180;-80
2021/09/29 05:25:40;;;;;;;2.50;1.05;;;;;;;;;;5040773;28;20197;-80
2021/09/29 05:28:11;;;;;;;0.70;0.60;;;;;;;;;;5045952;28;20230;-80
2021/09/29 05:30:37;;;;;;;1.45;0.80;;;;;;;;;;5049616;28;20436;-80
2021/09/29 05:33:03;;;;;;;1.40;0.70;;;;;;;;;;5039848;28;20186;-79
2021/09/29 05:35:29;;;;;;;1.85;0.95;;;;;;;;;;5051446;28;20191;-80
2021/09/29 05:37:55;;;;;;;0.80;0.68;;;;;;;;;;5052468;28;20190;-80
2021/09/29 05:40:21;;;;;;;1.60;0.70;;;;;;;;;;5040445;28;20217;-80
2021/09/29 05:42:47;;;;;;;1.17;0.60;;;;;;;;;;5048584;28;20454;-80
2021/09/29 05:45:13;;;;;;;1.20;0.70;;;;;;;;;;5045183;28;20444;-79
2021/09/29 05:47:39;;;;;;;1.17;0.60;;;;;;;;;;5042220;28;20474;-80
2021/09/29 05:50:06;;;;;;;3.45;0.85;;;;;;;;;;5038888;28;20470;-80
2021/09/29 05:52:32;;;;;;;3.05;0.98;;;;;;;;;;5038820;28;20243;-79
2021/09/29 05:54:58;;;;;;;2.92;0.77;;;;;;;;;;5051425;28;20177;-79
2021/09/29 05:57:24;;;;;;;1.23;0.90;;;;;;;;;;5046647;28;20186;-80
2021/09/29 05:59:51;;;;;;;1.02;0.73;;;;;;;;;;5044287;28;20507;-79
2021/09/29 06:02:17;;;;;;;3.10;0.82;;;;;;;;;;5041648;28;20190;-79
2021/09/29 06:04:43;;;;;;;0.70;0.60;;;;;;;;;;5041446;28;20685;-80
2021/09/29 06:07:15;;;;;;;1.80;0.80;;;;;;;;;;5045813;28;20189;-80
2021/09/29 06:09:41;;;;;;;2.30;0.80;;;;;;;;;;5057946;28;20258;-80
2021/09/29 06:12:10;;;;;;;2.30;0.70;;;;;;;;;;5049149;28;20261;-79
2021/09/29 06:14:36;;;;;;;1.85;0.75;;;;;;;;;;5046349;28;20444;-79
2021/09/29 06:17:20;;;;;;;1.35;1.10;;;;;;;;;;5042127;28;20174;-81
2021/09/29 06:19:46;;;;;;;1.40;0.70;;;;;;;;;;5039332;28;20182;-80
2021/09/29 06:22:12;;;;;;;1.00;0.73;;;;;;;;;;5045918;28;20250;-80
2021/09/29 06:24:39;;;;;;;1.40;0.80;;;;;;;;;;5055768;28;20206;-83
2021/09/29 06:27:05;;;;;;;3.35;0.88;;;;;;;;;;5042715;28;20473;-80
2021/09/29 06:29:31;;;;;;;2.47;0.98;;;;;;;;;;5047113;28;20673;-81
2021/09/29 06:31:57;;;;;;;1.58;1.42;;;;;;;;;;5040677;28;20278;-81
2021/09/29 06:34:26;;;;;;;1.75;0.93;;;;;;;;;;5040021;28;20245;-80
2021/09/29 06:36:52;;;;;;;1.10;0.70;;;;;;;;;;5047440;28;20193;-80
2021/09/29 06:39:18;;;;;;;0.82;0.68;;;;;;;;;;5045184;28;20186;-81
2021/09/29 06:41:45;;;;;;;3.10;0.77;;;;;;;;;;5037089;28;20566;-81
2021/09/29 06:44:11;;;;;;;1.00;0.90;;;;;;;;;;5043270;28;20189;-81
2021/09/29 06:46:37;;;;;;;2.08;0.82;;;;;;;;;;5042493;28;20197;-80
2021/09/29 06:49:03;;;;;;;1.98;0.95;;;;;;;;;;5047862;28;20198;-80
2021/09/29 06:51:30;;;;;;;1.65;0.90;;;;;;;;;;5044548;28;20714;-80
2021/09/29 06:53:56;;;;;;;1.45;0.80;;;;;;;;;;5045213;28;20178;-81
2021/09/29 06:56:22;;;;;;;3.55;0.90;;;;;;;;;;5041434;28;20196;-79
2021/09/29 06:58:51;;;;;;;2.10;0.77;;;;;;;;;;5042370;28;20193;-82
2021/09/29 07:01:17;;;;;;;2.00;0.80;;;;;;;;;;5044663;28;20479;-80
2021/09/29 07:03:43;;;;;;;3.47;0.95;;;;;;;;;;5047889;28;20212;-81
2021/09/29 07:06:09;;;;;;;3.35;1.10;;;;;;;;;;5039848;28;20666;-80
2021/09/29 07:08:35;;;;;;;1.70;0.80;;;;;;;;;;5039188;28;20265;-80
2021/09/29 07:11:02;;;;;;;2.70;0.80;;;;;;;;;;5044245;28;20653;-80
2021/09/29 07:13:28;;;;;;;1.67;0.93;;;;;;;;;;5042505;28;20170;-80
2021/09/29 07:15:54;;;;;;;2.65;0.80;;;;;;;;;;5045911;28;20186;-82
2021/09/29 07:18:20;;;;;;;1.92;0.82;;;;;;;;;;5052783;28;20225;-83
2021/09/29 07:20:46;;;;;;;2.60;0.80;;;;;;;;;;5044788;28;20209;-81
2021/09/29 07:23:12;;;;;;;2.83;0.93;;;;;;;;;;5045508;28;20555;-81
2021/09/29 07:25:38;;;;;;;2.08;0.80;;;;;;;;;;5043206;28;20780;-81
2021/09/29 07:28:05;;;;;;;1.00;0.73;;;;;;;;;;5045986;28;20242;-80
2021/09/29 07:30:31;;;;;;;3.95;0.98;;;;;;;;;;5045569;28;20313;-80
2021/09/29 07:33:02;;;;;;;2.15;1.02;;;;;;;;;;5045981;28;20187;-81
2021/09/29 07:35:29;;;;;;;1.40;0.80;;;;;;;;;;5043764;28;20175;-80
2021/09/29 07:37:55;;;;;;;2.00;1.00;;;;;;;;;;5045162;28;20249;-80
2021/09/29 07:40:21;;;;;;;2.07;1.00;;;;;;;;;;5041651;28;20173;-79
2021/09/29 07:42:47;;;;;;;2.15;0.95;;;;;;;;;;5042635;28;20452;-82
2021/09/29 07:45:13;;;;;;;1.60;0.90;;;;;;;;;;5044771;28;20184;-82
2021/09/29 07:47:39;;;;;;;1.52;0.77;;;;;;;;;;5044395;28;20213;-80
2021/09/29 07:50:06;;;;;;;2.75;1.23;;;;;;;;;;5044090;28;20184;-81
2021/09/29 07:52:32;;;;;;;1.88;1.60;;;;;;;;;;5039001;28;20193;-82
2021/09/29 07:54:58;;;;;;;4.13;1.00;;;;;;;;;;5048961;28;20173;-81
2021/09/29 07:57:24;;;;;;;4.03;1.27;;;;;;;;;;5044592;28;20177;-82
2021/09/29 07:59:50;;;;;;;3.50;1.42;;;;;;;;;;5044752;28;20451;-81
2021/09/29 08:02:16;;;;;;;3.00;1.00;;;;;;;;;;5046729;28;20193;-81
2021/09/29 08:04:43;;;;;;;3.13;1.38;;;;;;;;;;5041861;28;20438;-83
2021/09/29 08:07:09;;;;;;;1.73;1.10;;;;;;;;;;5046124;28;20180;-81
2021/09/29 08:09:35;;;;;;;3.05;1.40;;;;;;;;;;5045983;28;20218;-85
2021/09/29 08:12:01;;;;;;;4.60;1.10;;;;;;;;;;5043150;28;20211;-80
2021/09/29 08:14:27;;;;;;;3.45;0.90;;;;;;;;;;5043601;28;20182;-83
2021/09/29 08:16:53;;;;;;;3.35;0.95;;;;;;;;;;5042805;28;20188;-79
2021/09/29 08:19:19;;;;;;;3.83;1.15;;;;;;;;;;5043649;28;20184;-79
2021/09/29 08:21:47;;;;;;;4.53;0.90;;;;;;;;;;5044444;28;20182;-81
2021/09/29 08:24:20;;;;;;;6.10;0.98;;;;;;;;;;5043521;28;20230;-80
2021/09/29 08:32:10;;;;;;;4.47;0.90;;;;;;;;;;5042909;28;20183;-80
2021/09/29 08:50:28;;;;;;;2.15;0.93;;;;;;;;;;5011972;28;20208;-81
2021/09/29 09:17:25;;;;;;;5.90;1.35;;;;;;;;;;4957241;28;20188;-80
2021/09/29 09:19:51;;;;;;;3.83;0.90;;;;;;;;;;4958970;28;20206;-80
2021/09/29 09:22:17;;;;;;;2.53;1.03;;;;;;;;;;4959737;28;20187;-82
2021/09/29 09:24:52;;;;;;;2.65;1.08;;;;;;;;;;4960380;28;20434;-81
2021/09/29 09:27:18;;;;;;;2.15;1.17;;;;;;;;;;4960090;28;20318;-81
2021/09/29 09:29:44;;;;;;;3.13;1.33;;;;;;;;;;4946074;29;20370;-84
2021/09/29 09:32:11;;;;;;;3.55;1.10;;;;;;;;;;4962147;28;20490;-81
2021/09/29 09:34:38;;;;;;;3.67;1.08;;;;;;;;;;4961995;28;20215;-81
2021/09/29 09:37:08;;;;;;;3.38;1.38;;;;;;;;;;4969939;28;20218;-81
2021/09/29 09:39:34;;;;;;;2.67;0.93;;;;;;;;;;4994276;28;20207;-82
2021/09/29 09:42:01;;;;;;;3.25;1.25;;;;;;;;;;5046576;28;20197;-82
2021/09/29 09:44:30;;;;;;;5.15;1.70;;;;;;;;;;5048413;28;20199;-83
2021/09/29 09:46:57;;;;;;;5.82;1.10;;;;;;;;;;5044362;28;20196;-81
2021/09/29 09:49:23;;;;;;;7.93;1.33;;;;;;;;;;5044024;28;20260;-82
2021/09/29 09:51:50;;;;;;;3.83;1.20;;;;;;;;;;5046956;28;20188;-81
2021/09/29 09:54:18;;;;;;;5.38;1.27;;;;;;;;;;5045647;28;20420;-80
2021/09/29 09:56:52;;;;;;;3.25;0.85;;;;;;;;;;5048040;28;20239;-82
2021/09/29 09:59:18;;;;;;;4.38;1.38;;;;;;;;;;5035317;28;20188;-81
2021/09/29 10:01:46;;;;;;;4.30;1.00;;;;;;;;;;5042484;28;20269;-83
2021/09/29 10:04:13;;;;;;;2.80;0.80;;;;;;;;;;5045151;28;20907;-84
2021/09/29 10:06:39;;;;;;;4.72;0.95;;;;;;;;;;5047292;28;20269;-80
2021/09/29 10:11:53;;;;;;;3.15;1.10;;;;;;;;;;5046234;28;20211;-82
2021/09/29 10:28:38;;;;;;;2.30;0.60;;;;;;;;;;5018756;28;20286;-81
2021/09/29 10:31:32;;;;;;;1.27;0.75;;;;;;;;;;5021430;28;20182;-82
2021/09/29 10:34:05;;;;;;;2.72;0.90;;;;;;;;;;5006977;28;20201;-84
2021/09/29 10:44:31;;;;;;;2.05;0.90;;;;;;;;;;5023807;28;20181;-84
2021/09/29 11:04:24;;;;;;;2.17;0.82;;;;;;;;;;4982574;28;20190;-86
2021/09/29 11:31:26;;;;;;;1.65;0.90;;;;;;;;;;5047282;28;20186;-80
2021/09/29 11:34:04;;;;;;;1.10;0.75;;;;;;;;;;5049175;28;20169;-81
2021/09/29 12:09:06;;;;;;;1.98;0.80;;;;;;;;;;5044411;28;20240;-83
2021/09/29 12:11:43;;;;;;;1.75;0.90;;;;;;;;;;5045299;28;20494;-82
2021/09/29 12:14:16;;;;;;;2.92;0.90;;;;;;;;;;5042489;28;20198;-84
2021/09/29 12:16:42;;;;;;;2.65;0.98;;;;;;;;;;5040332;28;20177;-81
2021/09/29 12:19:11;;;;;;;2.75;0.95;;;;;;;;;;5047436;28;20189;-80
2021/09/29 12:21:43;;;;;;;4.05;0.88;;;;;;;;;;5047690;28;20180;-80
2021/09/29 12:24:14;;;;;;;3.17;1.20;;;;;;;;;;5044486;28;20178;-81
2021/09/29 12:26:47;;;;;;;1.83;1.10;;;;;;;;;;5043545;28;20783;-85
2021/09/29 12:35:08;;;;;;;3.40;1.07;;;;;;;;;;5042381;28;20936;-84
2021/09/29 12:37:35;;;;;;;1.63;0.90;;;;;;;;;;5031482;28;20457;-84
2021/09/29 12:40:00;;;;;;;2.70;1.03;;;;;;;;;;5033228;28;20521;-83
2021/09/29 12:42:30;;;;;;;1.87;1.13;;;;;;;;;;5040925;28;20436;-89
2021/09/29 12:44:56;;;;;;;2.57;0.90;;;;;;;;;;5037168;28;20444;-84
2021/09/29 12:47:25;;;;;;;2.70;1.00;;;;;;;;;;5040657;28;20479;-86
2021/09/29 12:49:52;;;;;;;3.33;1.07;;;;;;;;;;5036939;28;20467;-83
2021/09/29 12:52:36;;;;;;;1.60;0.90;;;;;;;;;;5041279;28;20440;-83
2021/09/29 12:55:03;;;;;;;1.10;1.00;;;;;;;;;;5052927;28;20417;-81
2021/09/29 12:57:30;;;;;;;1.27;0.63;;;;;;;;;;5042660;28;20432;-82
2021/09/29 12:59:57;;;;;;;1.43;0.70;;;;;;;;;;5044133;28;20406;-82
2021/09/29 13:02:23;;;;;;;2.22;1.00;;;;;;;;;;5053701;28;20835;-84
2021/09/29 13:04:49;;;;;;;1.77;0.70;;;;;;;;;;5038558;28;20185;-84
2021/09/29 13:07:15;;;;;;;1.63;0.70;;;;;;;;;;5041464;28;20532;-81
2021/09/29 13:09:41;;;;;;;1.35;0.70;;;;;;;;;;5043923;28;20467;-83
2021/09/29 13:12:07;;;;;;;1.00;0.60;;;;;;;;;;5053703;28;20261;-82
2021/09/29 13:14:33;;;;;;;1.27;0.50;;;;;;;;;;5045290;28;20241;-82
2021/09/29 13:16:59;;;;;;;1.13;0.50;;;;;;;;;;5056428;28;20215;-83
2021/09/29 13:19:46;;;;;;;0.90;0.70;;;;;;;;;;5043430;28;20442;-82
2021/09/29 13:22:18;;;;;;;1.83;0.90;;;;;;;;;;5057351;28;20289;-78
2021/09/29 13:38:33;;;;;;;1.80;1.00;;;;;;;;;;5113039;27;20571;-83
2021/09/29 13:40:59;;;;;;;2.63;0.95;;;;;;;;;;5101969;28;20171;-85
2021/09/29 13:43:25;;;;;;;1.87;1.07;;;;;;;;;;5081302;28;20183;-87
2021/09/29 13:45:52;;;;;;;2.35;0.70;;;;;;;;;;5088576;28;20930;-86
2021/09/29 13:48:19;;;;;;;1.55;0.90;;;;;;;;;;5102777;28;20168;-86
2021/09/29 13:50:45;;;;;;;2.05;0.70;;;;;;;;;;5079069;28;20189;-85
2021/09/29 13:53:12;;;;;;;0.97;0.70;;;;;;;;;;5101101;28;20207;-85
2021/09/29 13:55:38;;;;;;;1.38;0.80;;;;;;;;;;5079885;28;20421;-83
2021/09/29 13:58:11;;;;;;;3.80;1.80;;;;;;;;;;5087430;28;20252;-83
2021/09/29 14:03:51;;;;;;;2.15;1.05;;;;;;;;;;5101090;28;20221;-83
2021/09/29 14:14:59;;;;;;;3.58;1.13;;;;;;;;;;5021110;28;20210;-85
2021/09/29 14:31:11;;;;;;;4.50;1.20;;;;;;;;;;5019159;28;20190;-83
2021/09/29 14:33:45;;;;;;;1.40;0.80;;;;;;;;;;5001326;28;20214;-85
2021/09/29 14:36:15;;;;;;;3.00;1.00;;;;;;;;;;5019747;28;20178;-85
2021/09/29 14:38:41;;;;;;;2.03;0.95;;;;;;;;;;4980596;28;20202;-84
2021/09/29 14:41:07;;;;;;;2.97;1.55;;;;;;;;;;4984900;28;20314;-84
2021/09/29 14:43:33;;;;;;;2.97;1.17;;;;;;;;;;4991995;28;20183;-83
2021/09/29 14:45:59;;;;;;;1.73;0.80;;;;;;;;;;5054437;28;20484;-88
2021/09/29 14:48:25;;;;;;;2.40;1.00;;;;;;;;;;5055611;28;20444;-83
2021/09/29 14:50:53;;;;;;;4.10;1.10;;;;;;;;;;5061637;28;20185;-87
2021/09/29 14:53:19;;;;;;;1.38;0.80;;;;;;;;;;5066965;28;20474;-85
2021/09/29 14:55:45;;;;;;;2.28;0.90;;;;;;;;;;5046326;28;20182;-80
2021/09/29 14:58:11;;;;;;;3.17;1.00;;;;;;;;;;5067552;28;20208;-82
2021/09/29 15:00:37;;;;;;;1.70;1.53;;;;;;;;;;5056762;28;20469;-83
2021/09/29 15:03:03;;;;;;;2.70;0.80;;;;;;;;;;5069780;28;20940;-84
2021/09/29 15:05:30;;;;;;;1.40;0.90;;;;;;;;;;5050094;28;20435;-83
2021/09/29 15:07:56;;;;;;;3.05;1.30;;;;;;;;;;5038163;28;20189;-86
2021/09/29 15:10:22;;;;;;;2.05;0.80;;;;;;;;;;5048304;28;20177;-84
2021/09/29 15:12:48;;;;;;;1.88;1.05;;;;;;;;;;5050589;28;20249;-84
2021/09/29 15:15:20;;;;;;;4.43;1.10;;;;;;;;;;5048582;28;20196;-81
2021/09/29 15:17:53;;;;;;;5.05;1.00;;;;;;;;;;5047477;28;20455;-85
2021/09/29 15:25:30;;;;;;;4.43;1.00;;;;;;;;;;5067278;28;20412;-88
2021/09/29 15:31:29;;;;;;;2.45;1.25;;;;;;;;;;5066440;28;20193;-86
2021/09/29 15:50:04;;;;;;;3.25;0.98;;;;;;;;;;5057258;28;20209;-85
2021/09/29 15:52:40;;;;;;;3.08;0.88;;;;;;;;;;5057565;28;20189;-85
2021/09/29 15:55:19;;;;;;;2.65;1.10;;;;;;;;;;5055782;28;20699;-85
2021/09/29 15:58:02;;;;;;;5.90;1.10;;;;;;;;;;5039942;28;20229;-85
2021/09/29 16:03:26;;;;;;;3.78;1.77;;;;;;;;;;5064759;28;20192;-85
2021/09/29 16:08:36;;;;;;;2.30;1.00;;;;;;;;;;5064547;28;20563;-87
2021/09/29 16:16:15;;;;;;;4.87;3.60;;;;;;;;;;5068089;28;20199;-84
2021/09/29 16:29:57;;;;;;;2.10;0.85;;;;;;;;;;5059550;28;20181;-85
2021/09/29 16:34:48;;;;;;;5.43;1.83;;;;;;;;;;5059884;28;20230;-84
2021/09/29 16:37:14;;;;;;;6.25;1.10;;;;;;;;;;5051590;28;20220;-84
2021/09/29 16:39:40;;;;;;;2.30;1.00;;;;;;;;;;5082140;28;20214;-84
2021/09/29 16:42:06;;;;;;;3.00;1.00;;;;;;;;;;5082441;28;20232;-84
2021/09/29 16:44:32;;;;;;;3.17;1.20;;;;;;;;;;5075348;28;20179;-86
2021/09/29 16:46:58;;;;;;;2.85;1.20;;;;;;;;;;5085751;28;20178;-87
2021/09/29 16:49:27;;;;;;;5.32;1.38;;;;;;;;;;5075123;28;20576;-86
2021/09/29 16:52:12;;;;;;;4.53;1.23;;;;;;;;;;5085686;28;20210;-87
2021/09/29 16:54:39;;;;;;;4.15;1.40;;;;;;;;;;5087357;28;20226;-86
2021/09/29 16:57:16;;;;;;;1.80;1.00;;;;;;;;;;5084496;28;20266;-85
2021/09/29 17:02:10;;;;;;;3.25;1.02;;;;;;;;;;5084778;28;20181;-87
2021/09/29 17:04:36;;;;;;;4.95;1.13;;;;;;;;;;5075338;28;20176;-85
2021/09/29 17:07:02;;;;;;;5.63;1.30;;;;;;;;;;5083996;28;20184;-86
2021/09/29 17:09:28;;;;;;;2.45;1.27;;;;;;;;;;5086044;28;20260;-86
2021/09/29 17:11:54;;;;;;;5.23;1.30;;;;;;;;;;5084835;28;20176;-86
2021/09/29 17:14:20;;;;;;;4.10;1.63;;;;;;;;;;5085249;28;20582;-86
2021/09/29 17:16:46;;;;;;;2.28;1.63;;;;;;;;;;5082666;28;20467;-87
2021/09/29 17:19:12;;;;;;;3.15;2.30;;;;;;;;;;5085932;28;20173;-85
2021/09/29 17:21:38;;;;;;;2.95;1.30;;;;;;;;;;5086384;28;20181;-86
2021/09/29 17:24:05;;;;;;;4.00;1.10;;;;;;;;;;5083534;28;20191;-86
2021/09/29 17:26:31;;;;;;;5.55;1.67;;;;;;;;;;5076174;28;20461;-86
2021/09/29 17:28:59;;;;;;;4.25;2.20;;;;;;;;;;5083568;28;20183;-86
2021/09/29 17:31:33;;;;;;;3.22;2.00;;;;;;;;;;5081490;28;20192;-86
2021/09/29 17:34:17;;;;;;;4.35;1.98;;;;;;;;;;5077323;28;20174;-86
2021/09/29 17:52:49;;;;;;;2.65;1.60;;;;;;;;;;5060515;28;20243;-89
2021/09/29 17:55:17;;;;;;;8.80;2.78;;;;;;;;;;5034706;28;20276;-88
2021/09/29 18:01:12;;;;;;;3.65;1.95;;;;;;;;;;5063033;28;20299;-88
2021/09/29 18:10:50;;;;;;;7.38;2.13;;;;;;;;;;5010582;28;20292;-88
2021/09/29 18:13:58;;;;;;;;;;;;;;;;;;;;;
2021/09/29 18:20:17;;;;;;;;;;;;;;;;;;;;;
2021/09/29 18:23:00;;;;;;;5.07;2.50;;;;;;;;;;4769451;30;20306;-88
2021/09/29 18:32:14;;;;;;;8.52;5.80;;;;;;;;;;4793165;29;20195;-88
2021/09/29 18:44:24;;;;;;;3.95;2.60;;;;;;;;;;4810062;29;20630;-91
2021/09/29 18:47:00;;;;;;;;;;;;;;;;;;;;;
2021/09/29 18:49:48;;;;;;;8.77;2.92;;;;;;;;;;4851164;29;20275;-90
2021/09/29 18:52:38;;;;;;;;;;;;;;;;;;;;;
2021/09/29 19:10:41;;;;;;;14.50;8.52;;;;;;;;;;4936557;28;20360;-91
2021/09/29 19:13:50;;;;;;;13.48;9.25;;;;;;;;;;5045334;28;20177;-89
2021/09/29 19:16:42;;;;;;;15.13;7.05;;;;;;;;;;5017100;28;20194;-90
2021/09/29 19:19:30;;;;;;;9.45;4.53;;;;;;;;;;5005890;28;20210;-89
2021/09/29 19:22:04;;;;;;;6.68;4.30;;;;;;;;;;5018751;28;20179;-91
2021/09/29 19:27:43;;;;;;;10.57;5.55;;;;;;;;;;5029142;28;20229;-91
2021/09/29 19:30:42;;;;;;;7.80;4.80;;;;;;;;;;5024787;28;20198;-90
2021/09/29 19:33:14;;;;;;;7.53;5.25;;;;;;;;;;5011388;28;20232;-90
2021/09/29 19:36:14;;;;;;;6.22;4.57;;;;;;;;;;5027010;28;20251;-91
2021/09/29 19:39:01;;;;;;;9.45;5.55;;;;;;;;;;5030024;28;20222;-90
2021/09/29 19:41:30;;;;;;;9.95;5.20;;;;;;;;;;5042677;28;20185;-91
2021/09/29 19:44:13;;;;;;;6.47;3.90;;;;;;;;;;5046699;28;20174;-89
2021/09/29 19:46:59;;;;;;;5.57;3.40;;;;;;;;;;5038619;28;20192;-90
2021/09/29 20:09:46;;;;;;;8.45;4.20;;;;;;;;;;4986090;28;20203;-89
2021/09/29 20:12:13;;;;;;;4.82;4.03;;;;;;;;;;4965499;28;20287;-89
2021/09/29 20:14:40;;;;;;;4.60;3.85;;;;;;;;;;4959912;28;20179;-89
2021/09/29 20:17:11;;;;;;;5.88;4.18;;;;;;;;;;4986351;28;20202;-89
2021/09/29 20:19:45;;;;;;;6.97;3.28;;;;;;;;;;4978484;28;20179;-89